Airport View

Enter AWOS ICAO identifier for current METAR.

ex. KFNL

KMQI 171235Z AUTO 05023G32KT 5SM OVC013 13/11 A2995 RMK AO2 T01330113 PWINO

17 Nov 2019 12:42

Frequency: 128.275

Phone: 252-473-2826

Other Area AWOS: KFFA - K2DP - K7W6 - KECG

TAF KECG 171143Z 1712/1812 02021G33KT 3SM -RA BR OVC012 FM172100 01019G29KT 5SM -RA BR OVC009 FM180200 35017G26KT 4SM BR OVC007